sensor_id;sensor_type;location;lat;lon;timestamp;P1;durP1;ratioP1;P2;durP2;ratioP2
1993;SDS011;998;49.906;10.908;2023-04-16T00:01:00;5.03;;;4.10;;
1993;SDS011;998;49.906;10.908;2023-04-16T00:03:27;5.13;;;4.13;;
1993;SDS011;998;49.906;10.908;2023-04-16T00:05:55;5.30;;;4.10;;
1993;SDS011;998;49.906;10.908;2023-04-16T00:08:22;6.87;;;5.00;;
1993;SDS011;998;49.906;10.908;2023-04-16T00:10:49;6.30;;;4.47;;
1993;SDS011;998;49.906;10.908;2023-04-16T00:13:16;5.37;;;4.57;;
1993;SDS011;998;49.906;10.908;2023-04-16T00:15:43;6.20;;;4.57;;
1993;SDS011;998;49.906;10.908;2023-04-16T00:18:09;5.47;;;4.30;;
1993;SDS011;998;49.906;10.908;2023-04-16T00:20:36;7.07;;;4.70;;
1993;SDS011;998;49.906;10.908;2023-04-16T00:23:04;5.33;;;4.10;;
1993;SDS011;998;49.906;10.908;2023-04-16T00:25:31;4.80;;;3.63;;
1993;SDS011;998;49.906;10.908;2023-04-16T00:27:58;5.90;;;4.60;;
1993;SDS011;998;49.906;10.908;2023-04-16T00:30:25;5.40;;;4.50;;
1993;SDS011;998;49.906;10.908;2023-04-16T00:32:52;5.30;;;4.37;;
1993;SDS011;998;49.906;10.908;2023-04-16T00:35:18;4.73;;;4.23;;
1993;SDS011;998;49.906;10.908;2023-04-16T00:37:45;6.17;;;4.80;;
1993;SDS011;998;49.906;10.908;2023-04-16T00:40:13;5.13;;;3.53;;
1993;SDS011;998;49.906;10.908;2023-04-16T00:42:40;5.63;;;3.70;;
1993;SDS011;998;49.906;10.908;2023-04-16T00:45:07;5.93;;;4.97;;
1993;SDS011;998;49.906;10.908;2023-04-16T00:47:35;6.00;;;4.63;;
1993;SDS011;998;49.906;10.908;2023-04-16T00:50:03;7.30;;;4.87;;
1993;SDS011;998;49.906;10.908;2023-04-16T00:52:32;7.97;;;5.83;;
1993;SDS011;998;49.906;10.908;2023-04-16T00:55:00;6.13;;;3.90;;
1993;SDS011;998;49.906;10.908;2023-04-16T00:57:29;5.07;;;3.83;;
1993;SDS011;998;49.906;10.908;2023-04-16T00:59:55;5.67;;;4.40;;
1993;SDS011;998;49.906;10.908;2023-04-16T01:02:23;6.33;;;4.60;;
1993;SDS011;998;49.906;10.908;2023-04-16T01:04:50;5.70;;;4.50;;
1993;SDS011;998;49.906;10.908;2023-04-16T01:07:17;5.70;;;4.10;;
1993;SDS011;998;49.906;10.908;2023-04-16T01:09:43;5.90;;;4.20;;
1993;SDS011;998;49.906;10.908;2023-04-16T01:12:10;5.37;;;4.50;;
1993;SDS011;998;49.906;10.908;2023-04-16T01:14:38;5.63;;;4.47;;
1993;SDS011;998;49.906;10.908;2023-04-16T01:17:05;5.37;;;3.93;;
1993;SDS011;998;49.906;10.908;2023-04-16T01:19:32;5.70;;;4.60;;
1993;SDS011;998;49.906;10.908;2023-04-16T01:22:01;6.43;;;4.80;;
1993;SDS011;998;49.906;10.908;2023-04-16T01:24:28;5.87;;;4.33;;
1993;SDS011;998;49.906;10.908;2023-04-16T01:26:56;8.03;;;4.77;;
1993;SDS011;998;49.906;10.908;2023-04-16T01:29:23;12.90;;;8.27;;
1993;SDS011;998;49.906;10.908;2023-04-16T01:31:51;8.73;;;6.50;;
1993;SDS011;998;49.906;10.908;2023-04-16T01:34:18;8.80;;;5.90;;
1993;SDS011;998;49.906;10.908;2023-04-16T01:36:45;6.83;;;4.90;;
1993;SDS011;998;49.906;10.908;2023-04-16T01:39:13;10.57;;;7.53;;
1993;SDS011;998;49.906;10.908;2023-04-16T01:41:40;8.50;;;5.80;;
1993;SDS011;998;49.906;10.908;2023-04-16T01:44:07;7.40;;;4.33;;
1993;SDS011;998;49.906;10.908;2023-04-16T01:46:34;7.60;;;4.80;;
1993;SDS011;998;49.906;10.908;2023-04-16T01:49:05;6.23;;;4.50;;
1993;SDS011;998;49.906;10.908;2023-04-16T01:51:32;6.87;;;4.60;;
1993;SDS011;998;49.906;10.908;2023-04-16T01:53:59;5.37;;;4.07;;
1993;SDS011;998;49.906;10.908;2023-04-16T01:56:27;5.93;;;4.27;;
1993;SDS011;998;49.906;10.908;2023-04-16T01:58:53;6.50;;;4.17;;
1993;SDS011;998;49.906;10.908;2023-04-16T02:01:20;7.53;;;5.23;;
1993;SDS011;998;49.906;10.908;2023-04-16T02:03:50;7.90;;;4.67;;
1993;SDS011;998;49.906;10.908;2023-04-16T02:06:17;6.80;;;4.53;;
1993;SDS011;998;49.906;10.908;2023-04-16T02:08:44;8.67;;;5.77;;
1993;SDS011;998;49.906;10.908;2023-04-16T02:11:11;6.50;;;5.00;;
1993;SDS011;998;49.906;10.908;2023-04-16T02:13:39;5.50;;;4.60;;
1993;SDS011;998;49.906;10.908;2023-04-16T02:16:06;6.20;;;4.30;;
1993;SDS011;998;49.906;10.908;2023-04-16T02:18:33;6.03;;;4.73;;
1993;SDS011;998;49.906;10.908;2023-04-16T02:20:59;10.60;;;4.97;;
1993;SDS011;998;49.906;10.908;2023-04-16T02:23:26;5.73;;;4.33;;
1993;SDS011;998;49.906;10.908;2023-04-16T02:25:53;6.37;;;4.60;;
1993;SDS011;998;49.906;10.908;2023-04-16T02:28:20;5.77;;;3.90;;
1993;SDS011;998;49.906;10.908;2023-04-16T02:30:48;5.47;;;4.00;;
1993;SDS011;998;49.906;10.908;2023-04-16T02:33:15;7.30;;;4.77;;
1993;SDS011;998;49.906;10.908;2023-04-16T02:35:42;7.27;;;5.30;;
1993;SDS011;998;49.906;10.908;2023-04-16T02:38:08;5.40;;;4.03;;
1993;SDS011;998;49.906;10.908;2023-04-16T02:40:35;9.50;;;4.10;;
1993;SDS011;998;49.906;10.908;2023-04-16T02:43:05;7.60;;;4.77;;
1993;SDS011;998;49.906;10.908;2023-04-16T02:45:32;7.40;;;4.43;;
1993;SDS011;998;49.906;10.908;2023-04-16T02:48:00;7.30;;;4.90;;
1993;SDS011;998;49.906;10.908;2023-04-16T02:50:26;7.53;;;4.47;;
1993;SDS011;998;49.906;10.908;2023-04-16T02:52:53;7.57;;;4.60;;
1993;SDS011;998;49.906;10.908;2023-04-16T02:55:20;6.03;;;4.27;;
1993;SDS011;998;49.906;10.908;2023-04-16T02:57:47;6.33;;;4.77;;
1993;SDS011;998;49.906;10.908;2023-04-16T03:00:14;6.70;;;4.83;;
1993;SDS011;998;49.906;10.908;2023-04-16T03:02:40;4.87;;;4.00;;
1993;SDS011;998;49.906;10.908;2023-04-16T03:05:09;6.93;;;4.20;;
1993;SDS011;998;49.906;10.908;2023-04-16T03:07:36;6.70;;;5.00;;
1993;SDS011;998;49.906;10.908;2023-04-16T03:10:05;6.40;;;4.90;;
1993;SDS011;998;49.906;10.908;2023-04-16T03:12:33;6.60;;;4.50;;
1993;SDS011;998;49.906;10.908;2023-04-16T03:15:00;8.03;;;4.70;;
1993;SDS011;998;49.906;10.908;2023-04-16T03:17:27;6.57;;;4.47;;
1993;SDS011;998;49.906;10.908;2023-04-16T03:19:54;9.17;;;5.10;;
1993;SDS011;998;49.906;10.908;2023-04-16T03:22:22;6.10;;;4.80;;
1993;SDS011;998;49.906;10.908;2023-04-16T03:24:49;6.83;;;5.17;;
1993;SDS011;998;49.906;10.908;2023-04-16T03:27:16;6.53;;;4.77;;
1993;SDS011;998;49.906;10.908;2023-04-16T03:29:42;7.00;;;5.20;;
1993;SDS011;998;49.906;10.908;2023-04-16T03:32:09;6.83;;;5.43;;
1993;SDS011;998;49.906;10.908;2023-04-16T03:34:36;6.63;;;5.13;;
1993;SDS011;998;49.906;10.908;2023-04-16T03:37:03;7.10;;;4.43;;
1993;SDS011;998;49.906;10.908;2023-04-16T03:39:32;7.20;;;4.90;;
1993;SDS011;998;49.906;10.908;2023-04-16T03:41:59;6.83;;;5.13;;
1993;SDS011;998;49.906;10.908;2023-04-16T03:44:26;10.17;;;5.87;;
1993;SDS011;998;49.906;10.908;2023-04-16T03:46:53;6.90;;;5.50;;
1993;SDS011;998;49.906;10.908;2023-04-16T03:49:19;6.60;;;4.90;;
1993;SDS011;998;49.906;10.908;2023-04-16T03:51:46;6.80;;;4.50;;
1993;SDS011;998;49.906;10.908;2023-04-16T03:54:13;10.70;;;5.70;;
1993;SDS011;998;49.906;10.908;2023-04-16T03:56:41;7.73;;;4.60;;
1993;SDS011;998;49.906;10.908;2023-04-16T03:59:08;6.67;;;4.93;;
1993;SDS011;998;49.906;10.908;2023-04-16T04:01:35;6.60;;;5.00;;
1993;SDS011;998;49.906;10.908;2023-04-16T04:04:05;6.20;;;4.17;;
1993;SDS011;998;49.906;10.908;2023-04-16T04:06:33;6.90;;;4.80;;
1993;SDS011;998;49.906;10.908;2023-04-16T04:09:00;6.73;;;4.23;;
1993;SDS011;998;49.906;10.908;2023-04-16T04:11:28;6.47;;;4.30;;
1993;SDS011;998;49.906;10.908;2023-04-16T04:13:56;7.97;;;4.80;;
1993;SDS011;998;49.906;10.908;2023-04-16T04:16:28;8.10;;;5.10;;
1993;SDS011;998;49.906;10.908;2023-04-16T04:18:55;6.40;;;4.80;;
1993;SDS011;998;49.906;10.908;2023-04-16T04:21:24;5.37;;;4.47;;
1993;SDS011;998;49.906;10.908;2023-04-16T04:23:55;7.53;;;5.30;;
1993;SDS011;998;49.906;10.908;2023-04-16T04:26:25;9.00;;;5.27;;
1993;SDS011;998;49.906;10.908;2023-04-16T04:29:06;7.50;;;4.57;;
1993;SDS011;998;49.906;10.908;2023-04-16T04:31:34;7.80;;;5.27;;
1993;SDS011;998;49.906;10.908;2023-04-16T04:34:02;5.87;;;4.20;;
1993;SDS011;998;49.906;10.908;2023-04-16T04:36:30;7.03;;;4.60;;
1993;SDS011;998;49.906;10.908;2023-04-16T04:39:00;8.10;;;5.47;;
1993;SDS011;998;49.906;10.908;2023-04-16T04:41:27;8.23;;;5.70;;
1993;SDS011;998;49.906;10.908;2023-04-16T04:43:54;7.80;;;5.50;;
1993;SDS011;998;49.906;10.908;2023-04-16T04:46:22;9.40;;;6.00;;
1993;SDS011;998;49.906;10.908;2023-04-16T04:48:49;10.03;;;5.53;;
1993;SDS011;998;49.906;10.908;2023-04-16T04:51:16;8.10;;;5.10;;
1993;SDS011;998;49.906;10.908;2023-04-16T04:53:42;9.70;;;6.23;;
1993;SDS011;998;49.906;10.908;2023-04-16T04:56:09;7.00;;;5.67;;
1993;SDS011;998;49.906;10.908;2023-04-16T04:58:36;6.90;;;5.00;;
1993;SDS011;998;49.906;10.908;2023-04-16T05:01:03;10.20;;;5.60;;
1993;SDS011;998;49.906;10.908;2023-04-16T05:03:31;7.63;;;5.33;;
1993;SDS011;998;49.906;10.908;2023-04-16T05:05:58;7.70;;;5.77;;
1993;SDS011;998;49.906;10.908;2023-04-16T05:08:25;8.87;;;5.80;;
1993;SDS011;998;49.906;10.908;2023-04-16T05:10:51;9.80;;;6.10;;
1993;SDS011;998;49.906;10.908;2023-04-16T05:13:18;10.10;;;6.33;;
1993;SDS011;998;49.906;10.908;2023-04-16T05:15:45;8.03;;;5.20;;
1993;SDS011;998;49.906;10.908;2023-04-16T05:18:12;9.47;;;5.30;;
1993;SDS011;998;49.906;10.908;2023-04-16T05:20:40;8.43;;;5.80;;
1993;SDS011;998;49.906;10.908;2023-04-16T05:23:07;7.87;;;5.27;;
1993;SDS011;998;49.906;10.908;2023-04-16T05:25:33;8.43;;;5.80;;
1993;SDS011;998;49.906;10.908;2023-04-16T05:28:00;12.17;;;6.03;;
1993;SDS011;998;49.906;10.908;2023-04-16T05:30:27;7.10;;;5.60;;
1993;SDS011;998;49.906;10.908;2023-04-16T05:32:54;9.47;;;5.77;;
1993;SDS011;998;49.906;10.908;2023-04-16T05:35:21;9.37;;;5.83;;
1993;SDS011;998;49.906;10.908;2023-04-16T05:37:49;8.27;;;5.97;;
1993;SDS011;998;49.906;10.908;2023-04-16T05:40:16;8.47;;;6.43;;
1993;SDS011;998;49.906;10.908;2023-04-16T05:42:42;10.93;;;6.33;;
1993;SDS011;998;49.906;10.908;2023-04-16T05:45:09;9.30;;;6.40;;
1993;SDS011;998;49.906;10.908;2023-04-16T05:47:36;9.13;;;6.13;;
1993;SDS011;998;49.906;10.908;2023-04-16T05:50:03;8.60;;;5.73;;
1993;SDS011;998;49.906;10.908;2023-04-16T05:52:31;11.80;;;5.87;;
1993;SDS011;998;49.906;10.908;2023-04-16T05:54:59;10.30;;;4.97;;
1993;SDS011;998;49.906;10.908;2023-04-16T05:57:26;8.70;;;5.70;;
1993;SDS011;998;49.906;10.908;2023-04-16T05:59:53;11.73;;;6.70;;
1993;SDS011;998;49.906;10.908;2023-04-16T06:02:19;10.83;;;5.90;;
1993;SDS011;998;49.906;10.908;2023-04-16T06:04:46;11.13;;;6.00;;
1993;SDS011;998;49.906;10.908;2023-04-16T06:07:13;13.30;;;6.13;;
1993;SDS011;998;49.906;10.908;2023-04-16T06:09:40;10.20;;;6.30;;
1993;SDS011;998;49.906;10.908;2023-04-16T06:12:08;12.63;;;6.80;;
1993;SDS011;998;49.906;10.908;2023-04-16T06:14:35;8.60;;;5.90;;
1993;SDS011;998;49.906;10.908;2023-04-16T06:17:02;10.13;;;6.57;;
1993;SDS011;998;49.906;10.908;2023-04-16T06:19:29;8.73;;;6.23;;
1993;SDS011;998;49.906;10.908;2023-04-16T06:21:56;10.50;;;7.20;;
1993;SDS011;998;49.906;10.908;2023-04-16T06:24:23;15.57;;;10.87;;
1993;SDS011;998;49.906;10.908;2023-04-16T06:26:49;12.03;;;7.70;;
1993;SDS011;998;49.906;10.908;2023-04-16T06:29:18;12.47;;;7.57;;
1993;SDS011;998;49.906;10.908;2023-04-16T06:31:45;10.13;;;6.57;;
1993;SDS011;998;49.906;10.908;2023-04-16T06:34:12;8.50;;;6.37;;
1993;SDS011;998;49.906;10.908;2023-04-16T06:36:40;12.93;;;7.80;;
1993;SDS011;998;49.906;10.908;2023-04-16T06:39:06;9.67;;;5.80;;
1993;SDS011;998;49.906;10.908;2023-04-16T06:41:33;8.13;;;5.70;;
1993;SDS011;998;49.906;10.908;2023-04-16T06:44:00;10.73;;;5.70;;
1993;SDS011;998;49.906;10.908;2023-04-16T06:46:28;6.27;;;4.50;;
1993;SDS011;998;49.906;10.908;2023-04-16T06:48:55;6.80;;;4.30;;
1993;SDS011;998;49.906;10.908;2023-04-16T06:51:21;7.10;;;4.47;;
1993;SDS011;998;49.906;10.908;2023-04-16T06:53:48;6.90;;;4.67;;
1993;SDS011;998;49.906;10.908;2023-04-16T06:56:15;7.10;;;4.07;;
1993;SDS011;998;49.906;10.908;2023-04-16T06:58:42;7.27;;;4.00;;
1993;SDS011;998;49.906;10.908;2023-04-16T07:01:09;7.90;;;4.40;;
1993;SDS011;998;49.906;10.908;2023-04-16T07:03:37;6.90;;;3.90;;
1993;SDS011;998;49.906;10.908;2023-04-16T07:06:03;4.90;;;2.50;;
1993;SDS011;998;49.906;10.908;2023-04-16T07:08:30;4.13;;;2.87;;
1993;SDS011;998;49.906;10.908;2023-04-16T07:10:57;5.40;;;3.30;;
1993;SDS011;998;49.906;10.908;2023-04-16T07:13:24;4.03;;;2.87;;
1993;SDS011;998;49.906;10.908;2023-04-16T07:15:51;4.80;;;2.87;;
1993;SDS011;998;49.906;10.908;2023-04-16T07:18:18;4.83;;;3.10;;
1993;SDS011;998;49.906;10.908;2023-04-16T07:20:46;4.67;;;2.60;;
1993;SDS011;998;49.906;10.908;2023-04-16T07:23:13;4.47;;;3.20;;
1993;SDS011;998;49.906;10.908;2023-04-16T07:25:40;3.73;;;2.20;;
1993;SDS011;998;49.906;10.908;2023-04-16T07:28:07;3.50;;;2.27;;
1993;SDS011;998;49.906;10.908;2023-04-16T07:30:33;5.83;;;2.83;;
1993;SDS011;998;49.906;10.908;2023-04-16T07:33:01;3.90;;;2.40;;
1993;SDS011;998;49.906;10.908;2023-04-16T07:35:28;5.33;;;2.93;;
1993;SDS011;998;49.906;10.908;2023-04-16T07:37:57;4.03;;;2.33;;
1993;SDS011;998;49.906;10.908;2023-04-16T07:40:24;3.50;;;1.90;;
1993;SDS011;998;49.906;10.908;2023-04-16T07:42:50;2.80;;;1.67;;
1993;SDS011;998;49.906;10.908;2023-04-16T07:45:17;4.50;;;2.27;;
1993;SDS011;998;49.906;10.908;2023-04-16T07:47:44;4.10;;;2.27;;
1993;SDS011;998;49.906;10.908;2023-04-16T07:50:11;4.70;;;2.33;;
1993;SDS011;998;49.906;10.908;2023-04-16T07:52:38;4.27;;;2.60;;
1993;SDS011;998;49.906;10.908;2023-04-16T07:55:08;7.60;;;4.67;;
1993;SDS011;998;49.906;10.908;2023-04-16T07:57:35;4.07;;;2.53;;
1993;SDS011;998;49.906;10.908;2023-04-16T08:00:02;3.23;;;1.70;;
1993;SDS011;998;49.906;10.908;2023-04-16T08:02:30;2.93;;;1.77;;
1993;SDS011;998;49.906;10.908;2023-04-16T08:04:57;2.80;;;1.83;;
1993;SDS011;998;49.906;10.908;2023-04-16T08:07:24;2.67;;;1.60;;
1993;SDS011;998;49.906;10.908;2023-04-16T08:09:51;3.40;;;1.70;;
1993;SDS011;998;49.906;10.908;2023-04-16T08:12:20;2.80;;;1.23;;
1993;SDS011;998;49.906;10.908;2023-04-16T08:14:47;2.50;;;1.47;;
1993;SDS011;998;49.906;10.908;2023-04-16T08:17:14;2.50;;;1.50;;
1993;SDS011;998;49.906;10.908;2023-04-16T08:19:41;3.67;;;1.63;;
1993;SDS011;998;49.906;10.908;2023-04-16T08:22:09;6.50;;;1.63;;
1993;SDS011;998;49.906;10.908;2023-04-16T08:24:35;2.50;;;1.30;;
1993;SDS011;998;49.906;10.908;2023-04-16T08:27:02;2.10;;;1.23;;
1993;SDS011;998;49.906;10.908;2023-04-16T08:29:30;4.17;;;1.50;;
1993;SDS011;998;49.906;10.908;2023-04-16T08:31:57;3.20;;;1.50;;
1993;SDS011;998;49.906;10.908;2023-04-16T08:34:24;4.40;;;1.57;;
1993;SDS011;998;49.906;10.908;2023-04-16T08:36:51;4.40;;;1.60;;
1993;SDS011;998;49.906;10.908;2023-04-16T08:39:18;3.07;;;1.50;;
1993;SDS011;998;49.906;10.908;2023-04-16T08:41:45;2.50;;;1.43;;
1993;SDS011;998;49.906;10.908;2023-04-16T08:44:13;3.57;;;1.73;;
1993;SDS011;998;49.906;10.908;2023-04-16T08:46:47;3.70;;;2.00;;
1993;SDS011;998;49.906;10.908;2023-04-16T08:49:16;3.60;;;1.93;;
1993;SDS011;998;49.906;10.908;2023-04-16T08:51:44;2.87;;;1.87;;
1993;SDS011;998;49.906;10.908;2023-04-16T08:54:17;4.33;;;2.00;;
1993;SDS011;998;49.906;10.908;2023-04-16T08:56:52;3.27;;;1.77;;
1993;SDS011;998;49.906;10.908;2023-04-16T08:59:19;3.00;;;1.70;;
1993;SDS011;998;49.906;10.908;2023-04-16T09:01:50;3.00;;;1.80;;
1993;SDS011;998;49.906;10.908;2023-04-16T09:04:21;3.40;;;2.30;;
1993;SDS011;998;49.906;10.908;2023-04-16T09:06:49;2.87;;;1.80;;
1993;SDS011;998;49.906;10.908;2023-04-16T09:09:17;2.97;;;1.60;;
1993;SDS011;998;49.906;10.908;2023-04-16T09:11:49;2.60;;;1.80;;
1993;SDS011;998;49.906;10.908;2023-04-16T09:14:17;3.70;;;2.07;;
1993;SDS011;998;49.906;10.908;2023-04-16T09:16:45;4.13;;;2.10;;
1993;SDS011;998;49.906;10.908;2023-04-16T09:19:13;5.87;;;3.60;;
1993;SDS011;998;49.906;10.908;2023-04-16T09:21:41;3.43;;;1.70;;
1993;SDS011;998;49.906;10.908;2023-04-16T09:24:08;3.37;;;1.87;;
1993;SDS011;998;49.906;10.908;2023-04-16T09:26:35;5.00;;;1.50;;
1993;SDS011;998;49.906;10.908;2023-04-16T09:29:02;3.80;;;1.70;;
1993;SDS011;998;49.906;10.908;2023-04-16T09:31:30;4.33;;;1.90;;
1993;SDS011;998;49.906;10.908;2023-04-16T09:34:00;2.80;;;1.60;;
1993;SDS011;998;49.906;10.908;2023-04-16T09:36:29;4.73;;;1.73;;
1993;SDS011;998;49.906;10.908;2023-04-16T09:38:57;4.47;;;1.90;;
1993;SDS011;998;49.906;10.908;2023-04-16T09:41:25;4.60;;;1.87;;
1993;SDS011;998;49.906;10.908;2023-04-16T09:43:53;4.27;;;1.97;;
1993;SDS011;998;49.906;10.908;2023-04-16T09:46:21;3.60;;;2.00;;
1993;SDS011;998;49.906;10.908;2023-04-16T09:48:49;3.10;;;1.70;;
1993;SDS011;998;49.906;10.908;2023-04-16T09:51:16;2.20;;;1.30;;
1993;SDS011;998;49.906;10.908;2023-04-16T09:53:44;4.77;;;2.20;;
1993;SDS011;998;49.906;10.908;2023-04-16T09:56:11;3.37;;;1.80;;
1993;SDS011;998;49.906;10.908;2023-04-16T09:58:38;3.10;;;2.07;;
1993;SDS011;998;49.906;10.908;2023-04-16T10:01:06;6.10;;;1.97;;
1993;SDS011;998;49.906;10.908;2023-04-16T10:03:35;3.27;;;1.40;;
1993;SDS011;998;49.906;10.908;2023-04-16T10:06:06;4.30;;;2.03;;
1993;SDS011;998;49.906;10.908;2023-04-16T10:08:34;3.40;;;2.10;;
1993;SDS011;998;49.906;10.908;2023-04-16T10:11:02;2.83;;;1.60;;
1993;SDS011;998;49.906;10.908;2023-04-16T10:13:30;2.53;;;1.50;;
1993;SDS011;998;49.906;10.908;2023-04-16T10:15:57;3.60;;;1.63;;
1993;SDS011;998;49.906;10.908;2023-04-16T10:18:25;2.67;;;1.10;;
1993;SDS011;998;49.906;10.908;2023-04-16T10:20:53;2.53;;;1.40;;
1993;SDS011;998;49.906;10.908;2023-04-16T10:23:21;3.27;;;1.43;;
1993;SDS011;998;49.906;10.908;2023-04-16T10:25:48;3.60;;;1.40;;
1993;SDS011;998;49.906;10.908;2023-04-16T10:28:17;2.30;;;1.10;;
1993;SDS011;998;49.906;10.908;2023-04-16T10:30:46;2.87;;;1.40;;
1993;SDS011;998;49.906;10.908;2023-04-16T10:33:18;2.97;;;1.50;;
1993;SDS011;998;49.906;10.908;2023-04-16T10:35:46;2.53;;;1.43;;
1993;SDS011;998;49.906;10.908;2023-04-16T10:38:21;4.10;;;1.67;;
1993;SDS011;998;49.906;10.908;2023-04-16T10:40:49;2.40;;;1.30;;
1993;SDS011;998;49.906;10.908;2023-04-16T10:43:24;2.40;;;1.40;;
1993;SDS011;998;49.906;10.908;2023-04-16T10:45:51;3.37;;;2.50;;
1993;SDS011;998;49.906;10.908;2023-04-16T10:48:19;2.60;;;1.50;;
1993;SDS011;998;49.906;10.908;2023-04-16T10:50:52;2.67;;;1.60;;
1993;SDS011;998;49.906;10.908;2023-04-16T10:53:22;3.10;;;1.83;;
1993;SDS011;998;49.906;10.908;2023-04-16T10:56:09;4.10;;;1.70;;
1993;SDS011;998;49.906;10.908;2023-04-16T10:58:39;4.23;;;2.00;;
1993;SDS011;998;49.906;10.908;2023-04-16T11:01:14;4.80;;;1.80;;
1993;SDS011;998;49.906;10.908;2023-04-16T11:03:45;4.93;;;2.00;;
1993;SDS011;998;49.906;10.908;2023-04-16T11:06:13;2.77;;;1.70;;
1993;SDS011;998;49.906;10.908;2023-04-16T11:08:50;2.77;;;1.60;;
1993;SDS011;998;49.906;10.908;2023-04-16T11:11:18;2.63;;;1.73;;
1993;SDS011;998;49.906;10.908;2023-04-16T11:13:48;2.60;;;1.50;;
1993;SDS011;998;49.906;10.908;2023-04-16T11:16:19;3.53;;;1.63;;
1993;SDS011;998;49.906;10.908;2023-04-16T11:18:46;4.37;;;1.60;;
1993;SDS011;998;49.906;10.908;2023-04-16T11:21:13;3.23;;;1.77;;
1993;SDS011;998;49.906;10.908;2023-04-16T11:23:47;2.53;;;1.27;;
1993;SDS011;998;49.906;10.908;2023-04-16T11:26:24;4.03;;;2.30;;
1993;SDS011;998;49.906;10.908;2023-04-16T11:28:57;3.60;;;1.70;;
1993;SDS011;998;49.906;10.908;2023-04-16T11:31:25;2.93;;;1.23;;
1993;SDS011;998;49.906;10.908;2023-04-16T11:33:53;2.20;;;1.10;;
1993;SDS011;998;49.906;10.908;2023-04-16T11:36:21;3.30;;;1.50;;
1993;SDS011;998;49.906;10.908;2023-04-16T11:38:47;3.13;;;1.20;;
1993;SDS011;998;49.906;10.908;2023-04-16T11:41:20;2.70;;;1.30;;
1993;SDS011;998;49.906;10.908;2023-04-16T11:43:47;2.70;;;1.40;;
1993;SDS011;998;49.906;10.908;2023-04-16T11:46:15;2.60;;;1.37;;
1993;SDS011;998;49.906;10.908;2023-04-16T11:48:47;2.80;;;1.37;;
1993;SDS011;998;49.906;10.908;2023-04-16T11:51:15;2.30;;;1.20;;
1993;SDS011;998;49.906;10.908;2023-04-16T11:53:46;2.80;;;1.43;;
1993;SDS011;998;49.906;10.908;2023-04-16T11:56:14;2.30;;;1.33;;
1993;SDS011;998;49.906;10.908;2023-04-16T11:58:41;3.20;;;1.80;;
1993;SDS011;998;49.906;10.908;2023-04-16T12:01:09;2.90;;;1.70;;
1993;SDS011;998;49.906;10.908;2023-04-16T12:03:38;4.03;;;1.43;;
1993;SDS011;998;49.906;10.908;2023-04-16T12:06:08;8.63;;;1.70;;
1993;SDS011;998;49.906;10.908;2023-04-16T12:08:35;2.90;;;1.70;;
1993;SDS011;998;49.906;10.908;2023-04-16T12:11:02;3.37;;;1.90;;
1993;SDS011;998;49.906;10.908;2023-04-16T12:13:29;5.10;;;1.60;;
1993;SDS011;998;49.906;10.908;2023-04-16T12:16:06;3.17;;;1.70;;
1993;SDS011;998;49.906;10.908;2023-04-16T12:21:37;2.60;;;1.60;;
1993;SDS011;998;49.906;10.908;2023-04-16T12:24:06;4.10;;;1.73;;
1993;SDS011;998;49.906;10.908;2023-04-16T12:26:40;2.77;;;1.63;;
1993;SDS011;998;49.906;10.908;2023-04-16T12:29:16;2.93;;;1.53;;
1993;SDS011;998;49.906;10.908;2023-04-16T12:31:44;3.53;;;2.10;;
1993;SDS011;998;49.906;10.908;2023-04-16T12:34:12;3.33;;;2.03;;
1993;SDS011;998;49.906;10.908;2023-04-16T12:36:40;2.57;;;1.50;;
1993;SDS011;998;49.906;10.908;2023-04-16T12:39:07;2.60;;;1.73;;
1993;SDS011;998;49.906;10.908;2023-04-16T12:41:35;2.53;;;1.63;;
1993;SDS011;998;49.906;10.908;2023-04-16T12:44:06;3.20;;;1.33;;
1993;SDS011;998;49.906;10.908;2023-04-16T12:46:36;2.50;;;1.53;;
1993;SDS011;998;49.906;10.908;2023-04-16T12:49:03;2.77;;;1.70;;
1993;SDS011;998;49.906;10.908;2023-04-16T12:51:32;8.90;;;2.60;;
1993;SDS011;998;49.906;10.908;2023-04-16T12:54:01;5.73;;;2.37;;
1993;SDS011;998;49.906;10.908;2023-04-16T12:56:29;3.53;;;1.70;;
1993;SDS011;998;49.906;10.908;2023-04-16T12:58:56;2.97;;;1.70;;
1993;SDS011;998;49.906;10.908;2023-04-16T13:01:23;2.30;;;1.30;;
1993;SDS011;998;49.906;10.908;2023-04-16T13:03:50;2.73;;;1.43;;
1993;SDS011;998;49.906;10.908;2023-04-16T13:06:17;2.07;;;1.00;;
1993;SDS011;998;49.906;10.908;2023-04-16T13:08:45;2.20;;;1.03;;
1993;SDS011;998;49.906;10.908;2023-04-16T13:11:12;2.00;;;0.90;;
1993;SDS011;998;49.906;10.908;2023-04-16T13:13:39;2.30;;;1.20;;
1993;SDS011;998;49.906;10.908;2023-04-16T13:16:08;2.30;;;1.10;;
1993;SDS011;998;49.906;10.908;2023-04-16T13:18:37;2.27;;;1.07;;
1993;SDS011;998;49.906;10.908;2023-04-16T13:21:05;4.87;;;2.27;;
1993;SDS011;998;49.906;10.908;2023-04-16T13:23:32;4.20;;;1.57;;
1993;SDS011;998;49.906;10.908;2023-04-16T13:26:01;2.20;;;1.20;;
1993;SDS011;998;49.906;10.908;2023-04-16T13:28:28;3.27;;;1.30;;
1993;SDS011;998;49.906;10.908;2023-04-16T13:30:55;3.93;;;1.57;;
1993;SDS011;998;49.906;10.908;2023-04-16T13:33:22;2.30;;;1.10;;
1993;SDS011;998;49.906;10.908;2023-04-16T13:35:49;4.90;;;2.20;;
1993;SDS011;998;49.906;10.908;2023-04-16T13:38:16;3.20;;;1.67;;
1993;SDS011;998;49.906;10.908;2023-04-16T13:40:43;2.77;;;1.30;;
1993;SDS011;998;49.906;10.908;2023-04-16T13:43:11;2.50;;;1.30;;
1993;SDS011;998;49.906;10.908;2023-04-16T13:45:42;2.20;;;1.50;;
1993;SDS011;998;49.906;10.908;2023-04-16T13:48:09;3.70;;;1.40;;
1993;SDS011;998;49.906;10.908;2023-04-16T13:50:38;2.20;;;1.30;;
1993;SDS011;998;49.906;10.908;2023-04-16T13:53:05;3.03;;;1.50;;
1993;SDS011;998;49.906;10.908;2023-04-16T13:55:32;4.40;;;1.40;;
1993;SDS011;998;49.906;10.908;2023-04-16T13:57:59;4.63;;;2.40;;
1993;SDS011;998;49.906;10.908;2023-04-16T14:00:28;3.90;;;2.07;;
1993;SDS011;998;49.906;10.908;2023-04-16T14:02:54;3.30;;;1.70;;
1993;SDS011;998;49.906;10.908;2023-04-16T14:05:21;3.20;;;1.40;;
1993;SDS011;998;49.906;10.908;2023-04-16T14:07:48;5.80;;;3.50;;
1993;SDS011;998;49.906;10.908;2023-04-16T14:10:15;6.63;;;4.50;;
1993;SDS011;998;49.906;10.908;2023-04-16T14:12:42;3.07;;;2.10;;
1993;SDS011;998;49.906;10.908;2023-04-16T14:15:09;2.63;;;1.60;;
1993;SDS011;998;49.906;10.908;2023-04-16T14:17:40;4.27;;;1.87;;
1993;SDS011;998;49.906;10.908;2023-04-16T14:20:08;4.30;;;2.00;;
1993;SDS011;998;49.906;10.908;2023-04-16T14:22:36;4.07;;;2.30;;
1993;SDS011;998;49.906;10.908;2023-04-16T14:25:03;3.10;;;2.10;;
1993;SDS011;998;49.906;10.908;2023-04-16T14:27:31;3.87;;;2.47;;
1993;SDS011;998;49.906;10.908;2023-04-16T14:29:59;3.20;;;1.70;;
1993;SDS011;998;49.906;10.908;2023-04-16T14:32:26;2.90;;;1.97;;
1993;SDS011;998;49.906;10.908;2023-04-16T14:34:54;3.33;;;1.93;;
1993;SDS011;998;49.906;10.908;2023-04-16T14:37:21;5.30;;;3.63;;
1993;SDS011;998;49.906;10.908;2023-04-16T14:39:48;3.63;;;2.00;;
1993;SDS011;998;49.906;10.908;2023-04-16T14:42:15;3.73;;;2.83;;
1993;SDS011;998;49.906;10.908;2023-04-16T14:44:42;4.40;;;3.30;;
1993;SDS011;998;49.906;10.908;2023-04-16T14:47:09;4.30;;;2.50;;
1993;SDS011;998;49.906;10.908;2023-04-16T14:49:35;4.00;;;2.13;;
1993;SDS011;998;49.906;10.908;2023-04-16T14:52:04;3.33;;;2.00;;
1993;SDS011;998;49.906;10.908;2023-04-16T14:54:31;2.30;;;1.40;;
1993;SDS011;998;49.906;10.908;2023-04-16T14:56:58;2.40;;;1.37;;
1993;SDS011;998;49.906;10.908;2023-04-16T14:59:26;2.83;;;1.70;;
1993;SDS011;998;49.906;10.908;2023-04-16T15:01:53;2.57;;;1.60;;
1993;SDS011;998;49.906;10.908;2023-04-16T15:04:20;2.70;;;1.57;;
1993;SDS011;998;49.906;10.908;2023-04-16T15:06:47;3.53;;;1.67;;
1993;SDS011;998;49.906;10.908;2023-04-16T15:09:16;4.20;;;1.43;;
1993;SDS011;998;49.906;10.908;2023-04-16T15:11:43;2.60;;;1.50;;
1993;SDS011;998;49.906;10.908;2023-04-16T15:14:10;2.37;;;1.40;;
1993;SDS011;998;49.906;10.908;2023-04-16T15:16:37;2.60;;;1.60;;
1993;SDS011;998;49.906;10.908;2023-04-16T15:19:04;3.07;;;2.23;;
1993;SDS011;998;49.906;10.908;2023-04-16T15:21:31;3.30;;;2.00;;